Queen Of Cowichan — CZ4990 — position and weather

sailwx.info

Track history (hours):
 
Tides and Currents Weather Stations Pressure Air Temp Water Temp Dewpoint Dewpoint Depression Visibility Wind Speed Wind Dir Waves Ship Positions

Queen Of Cowichan

Last reported at 2015-Mar-31 20:34 UTC. Time now 2015-Mar-31 20:47 UTC.
Position N 49°16' W 123°40'.

Length 139 m; draft 5.5 m.

Type: Passenger vessel. MMSI: 316001251.

Date/timePositionNaut miles runAvg speedWind from/ knotsBaromVisibWave heightAir tempDewpointWater temp
2015-Mar-31 20:34N 49°16' W 123°40'1711.9
2015-Mar-31 19:10N 49°23' W 123°16'1016.2
2015-Mar-31 18:34N 49°18' W 123°29'1913.6
2015-Mar-31 17:08N 49°12' W 123°57'1016.6
2015-Mar-31 16:33N 49°16' W 123°44'1919.3
2015-Mar-31 15:33N 49°23' W 123°17'9 9.1
2015-Mar-31 14:33N 49°18' W 123°28'2019.7
2015-Mar-31 13:33N 49°12' W 123°57'1 0.1
2015-Mar-31 07:26N 49°12' W 123°57'6 6.5
2015-Mar-31 06:33N 49°14' W 123°50'2020.0
2015-Mar-31 05:34N 49°20' W 123°20'1 1.4
2015-Mar-31 04:34N 49°19' W 123°22'2019.8
2015-Mar-31 03:33N 49°14' W 123°51'4 4.3
2015-Mar-31 02:30N 49°12' W 123°57'1516.3
2015-Mar-31 01:33N 49°17' W 123°35'1412.5
2015-Mar-31 00:28N 49°23' W 123°16'5 5.8
2015-Mar-30 23:33N 49°19' W 123°23'1716.8
2015-Mar-30 22:33N 49°14' W 123°48'7 6.8
2015-Mar-30 21:33N 49°12' W 123°57'1918.8
2015-Mar-30 20:34N 49°18' W 123°31'10 9.6
2015-Mar-30 19:29N 49°23' W 123°16'1516.0
2015-Mar-30 18:34N 49°16' W 123°37'1412.0
2015-Mar-30 17:23N 49°12' W 123°57'1416.8
2015-Mar-30 16:34N 49°17' W 123°38'1510.8
2015-Mar-30 15:08N 49°23' W 123°16'916.1
2015-Mar-30 14:33N 49°18' W 123°28'2019.4
2015-Mar-30 13:33N 49°12' W 123°57'1 0.5
2015-Mar-30 12:27N 49°12' W 123°57'0 0.0
2015-Mar-30 11:33N 49°12' W 123°57'0 0.0
2015-Mar-30 10:30N 49°12' W 123°57'0 0.0
2015-Mar-30 09:15N 49°12' W 123°57'0 0.0
2015-Mar-30 08:33N 49°12' W 123°57'0 0.0
2015-Mar-30 07:27N 49°12' W 123°57'0 0.1
2015-Mar-30 06:24N 49°12' W 123°57'1618.8
2015-Mar-30 05:34N 49°17' W 123°34'1311.6
2015-Mar-30 04:27N 49°23' W 123°16'1416.0
2015-Mar-30 03:33N 49°16' W 123°36'1512.7
2015-Mar-30 02:24N 49°12' W 123°57'7 8.8
2015-Mar-30 01:34N 49°15' W 123°47'2019.8
2015-Mar-30 00:33N 49°22' W 123°19'1 1.3
2015-Mar-29 23:34N 49°21' W 123°20'2019.5
2015-Mar-29 22:33N 49°14' W 123°48'6 6.4
2015-Mar-29 21:32N 49°12' W 123°57'1818.6
2015-Mar-29 20:33N 49°18' W 123°31'11 8.4
2015-Mar-29 19:18N 49°23' W 123°16'1115.4
2015-Mar-29 18:33N 49°17' W 123°32'1816.8
2015-Mar-29 17:30N 49°12' W 123°57'1111.2
2015-Mar-29 16:34N 49°16' W 123°43'1818.2
2015-Mar-29 15:33N 49°23' W 123°16'9 9.1
2015-Mar-29 14:33N 49°18' W 123°28'2019.7
2015-Mar-29 13:33N 49°12' W 123°57'1 0.7
2015-Mar-29 12:28N 49°12' W 123°57'0 0.0
2015-Mar-29 09:22N 49°12' W 123°57'6 1.6
2015-Mar-29 05:33N 49°15' W 123°49'2019.8
2015-Mar-29 04:34N 49°21' W 123°20'2 1.9
2015-Mar-29 03:33N 49°19' W 123°22'2020.2
2015-Mar-29 02:33N 49°14' W 123°52'3 3.4
2015-Mar-29 01:34N 49°12' W 123°57'1919.3
2015-Mar-29 00:34N 49°19' W 123°29'9 9.1
2015-Mar-28 23:33N 49°23' W 123°16'1918.5
2015-Mar-28 22:33N 49°15' W 123°42'10 9.1
2015-Mar-28 21:24N 49°12' W 123°57'1517.8
2015-Mar-28 20:34N 49°17' W 123°36'1411.6
2015-Mar-28 19:21N 49°23' W 123°16'1316.4
2015-Mar-28 18:33N 49°17' W 123°34'1612.8
2015-Mar-28 17:18N 49°12' W 123°57'1215.8
2015-Mar-28 16:33N 49°17' W 123°41'1712.7
2015-Mar-28 15:12N 49°23' W 123°16'1015.6
2015-Mar-28 14:33N 49°17' W 123°29'1919.0
2015-Mar-28 13:33N 49°12' W 123°57'0 0.0
2015-Mar-28 12:13N 49°12' W 123°57'0 0.0
2015-Mar-28 10:25N 49°12' W 123°57'0 0.0
2015-Mar-28 09:22N 49°12' W 123°57'0 0.0
2015-Mar-28 08:22N 49°12' W 123°57'0 0.0
2015-Mar-28 06:33N 49°12' W 123°57'1818.3
2015-Mar-28 05:33N 49°18' W 123°31'11 9.6
2015-Mar-28 04:26N 49°23' W 123°16'1315.0
2015-Mar-28 03:34N 49°17' W 123°34'1613.6
2015-Mar-28 02:23N 49°12' W 123°57'8 9.8
2015-Mar-28 01:33N 49°15' W 123°46'1919.2
2015-Mar-28 00:33N 49°22' W 123°18'0 0.5
2015-Mar-27 23:33N 49°22' W 123°19'1919.4
2015-Mar-27 22:34N 49°15' W 123°47'8 7.5
2015-Mar-27 21:33N 49°12' W 123°57'1717.5
2015-Mar-27 20:34N 49°18' W 123°33'12 9.8
2015-Mar-27 19:22N 49°23' W 123°16'1315.7
2015-Mar-27 18:34N 49°17' W 123°34'1611.9
2015-Mar-27 17:11N 49°12' W 123°57'1117.1
2015-Mar-27 16:33N 49°17' W 123°43'1818.2
2015-Mar-27 15:33N 49°23' W 123°16'9 9.1
2015-Mar-27 14:33N 49°18' W 123°28'2019.7
2015-Mar-27 13:34N 49°12' W 123°57'1 0.4
2015-Mar-27 12:13N 49°12' W 123°57'0 0.0
2015-Mar-27 11:31N 49°12' W 123°57'0 0.0
2015-Mar-27 10:22N 49°12' W 123°57'0 0.0
2015-Mar-27 09:13N 49°12' W 123°57'0 0.0
2015-Mar-27 08:31N 49°12' W 123°57'0 0.0
2015-Mar-27 07:25N 49°12' W 123°57'0 0.0
2015-Mar-27 06:19N 49°12' W 123°57'4 4.7
2015-Mar-27 05:33N 49°14' W 123°53'2020.4
2015-Mar-27 04:33N 49°20' W 123°23'1 1.4
2015-Mar-27 03:33N 49°20' W 123°21'2020.0
2015-Mar-27 02:34N 49°14' W 123°50'2 2.4
2015-Mar-27 01:33N 49°13' W 123°54'2020.2
2015-Mar-27 00:33N 49°19' W 123°24'6 6.3
2015-Mar-26 23:33N 49°23' W 123°17'1918.8
2015-Mar-26 22:33N 49°15' W 123°43'10 8.7
2015-Mar-26 21:24N 49°12' W 123°57'1619.0
2015-Mar-26 20:34N 49°18' W 123°35'1311.0
2015-Mar-26 19:23N 49°23' W 123°16'1315.2
2015-Mar-26 18:34N 49°16' W 123°33'1615.7
2015-Mar-26 17:31N 49°12' W 123°57'1111.5
2015-Mar-26 16:33N 49°17' W 123°42'1817.9
2015-Mar-26 15:33N 49°23' W 123°16'9 8.7
2015-Mar-26 14:33N 49°18' W 123°28'2019.9
2015-Mar-26 13:33N 49°12' W 123°57'1 0.2
2015-Mar-26 10:31N 49°12' W 123°57'0 0.0
2015-Mar-26 08:22N 49°12' W 123°57'0 0.0
2015-Mar-26 06:31N 49°12' W 123°57'1414.2
2015-Mar-26 05:33N 49°17' W 123°38'1513.6
2015-Mar-26 04:26N 49°23' W 123°16'1314.6
2015-Mar-26 03:34N 49°17' W 123°34'1612.5
2015-Mar-26 02:16N 49°12' W 123°57'1014.5
2015-Mar-26 01:33N 49°16' W 123°43'1918.7
2015-Mar-26 00:34N 49°23' W 123°16'7 7.1
2015-Mar-25 23:33N 49°19' W 123°25'2019.7
2015-Mar-25 22:33N 49°13' W 123°54'2 1.7
2015-Mar-25 21:33N 49°14' W 123°52'2019.6
2015-Mar-25 20:34N 49°19' W 123°23'6 5.2
2015-Mar-25 19:28N 49°23' W 123°16'1617.2
2015-Mar-25 18:33N 49°16' W 123°38'1310.6
2015-Mar-25 17:17N 49°12' W 123°57'1317.4
2015-Mar-25 16:33N 49°17' W 123°40'1612.5
2015-Mar-25 15:15N 49°23' W 123°16'1115.3
2015-Mar-25 14:34N 49°17' W 123°30'1818.3
2015-Mar-25 13:33N 49°12' W 123°57'0 0.1
2015-Mar-25 09:13N 49°12' W 123°57'0 0.0
2015-Mar-25 07:19N 49°12' W 123°57'0 0.0
2015-Mar-25 06:25N 49°12' W 123°57'1 0.6
2015-Mar-25 05:33N 49°12' W 123°57'2019.8
2015-Mar-25 04:34N 49°18' W 123°28'9 8.6
2015-Mar-25 03:33N 49°23' W 123°17'1919.3
2015-Mar-25 02:34N 49°15' W 123°44'9 9.1
2015-Mar-25 01:33N 49°12' W 123°57'2019.6
2015-Mar-25 00:33N 49°18' W 123°29'9 9.4
2015-Mar-24 23:33N 49°23' W 123°16'1918.8
2015-Mar-24 22:33N 49°15' W 123°42'10 9.5
2015-Mar-24 21:27N 49°12' W 123°57'1517.2
2015-Mar-24 20:34N 49°17' W 123°35'1411.3
2015-Mar-24 19:21N 49°23' W 123°16'1215.0
2015-Mar-24 18:33N 49°17' W 123°32'1712.2
2015-Mar-24 17:09N 49°12' W 123°57'1118.2
2015-Mar-24 16:33N 49°16' W 123°42'1813.5
2015-Mar-24 15:14N 49°23' W 123°16'913.9
2015-Mar-24 14:34N 49°18' W 123°28'2019.5
2015-Mar-24 13:33N 49°12' W 123°57'0 0.1
2015-Mar-24 07:16N 49°12' W 123°57'0 0.0
2015-Mar-24 06:22N 49°12' W 123°57'3 3.9
2015-Mar-24 05:33N 49°14' W 123°53'2020.0
2015-Mar-24 04:34N 49°19' W 123°24'3 2.9
2015-Mar-24 03:33N 49°21' W 123°20'1919.4
2015-Mar-24 02:33N 49°15' W 123°49'3 3.2
2015-Mar-24 01:33N 49°14' W 123°53'2020.1
2015-Mar-24 00:33N 49°19' W 123°24'5 5.1
2015-Mar-23 23:33N 49°23' W 123°18'1818.1
2015-Mar-23 22:34N 49°15' W 123°43'10 8.1
2015-Mar-23 21:21N 49°12' W 123°57'1418.4
2015-Mar-23 20:34N 49°17' W 123°37'1411.0
2015-Mar-23 19:15N 49°23' W 123°16'1116.4
2015-Mar-23 18:34N 49°17' W 123°31'1817.5
2015-Mar-23 17:32N 49°12' W 123°57'1110.7
2015-Mar-23 16:33N 49°16' W 123°43'1813.5
2015-Mar-23 15:12N 49°23' W 123°16'914.3
2015-Mar-23 14:33N 49°18' W 123°28'2019.7
2015-Mar-23 13:33N 49°12' W 123°57'8 1.0
2015-Mar-23 05:34N 49°15' W 123°45'2019.8
2015-Mar-23 04:33N 49°23' W 123°17'8 7.8
2015-Mar-23 03:33N 49°18' W 123°27'2019.6
2015-Mar-23 02:34N 49°13' W 123°55'3 3.4
2015-Mar-23 01:33N 49°14' W 123°51'2020.4
2015-Mar-23 00:34N 49°20' W 123°21'3 2.6
2015-Mar-22 23:33N 49°22' W 123°19'1918.7
2015-Mar-22 22:33N 49°15' W 123°45'9 7.1
2015-Mar-22 21:21N 49°12' W 123°57'1518.6
2015-Mar-22 20:34N 49°17' W 123°37'1414.2
2015-Mar-22 19:33N 49°23' W 123°16'1110.5
2015-Mar-22 18:33N 49°17' W 123°30'1918.6
2015-Mar-22 17:33N 49°12' W 123°57'1010.5
2015-Mar-22 16:33N 49°16' W 123°43'1918.5
2015-Mar-22 15:34N 49°23' W 123°16'9 9.4
2015-Mar-22 14:33N 49°18' W 123°29'1919.2
2015-Mar-22 13:33N 49°12' W 123°57'1 0.6
2015-Mar-22 12:31N 49°12' W 123°57'0 0.0
2015-Mar-22 11:16N 49°12' W 123°57'0 0.0
2015-Mar-22 10:28N 49°12' W 123°57'0 0.0
2015-Mar-22 08:10N 49°12' W 123°57'3 1.0
2015-Mar-22 05:33N 49°13' W 123°54'2020.1
2015-Mar-22 04:34N 49°19' W 123°24'4 4.3
2015-Mar-22 03:33N 49°22' W 123°19'1919.3
2015-Mar-22 02:33N 49°15' W 123°47'6 5.9
2015-Mar-22 01:33N 49°13' W 123°55'2020.0
2015-Mar-22 00:34N 49°19' W 123°26'7 7.1
2015-Mar-21 23:33N 49°23' W 123°17'1818.4
2015-Mar-21 22:33N 49°15' W 123°43'10 9.2
2015-Mar-21 21:28N 49°12' W 123°57'1415.7
2015-Mar-21 20:34N 49°17' W 123°37'  
Track history (hours):
 
Tides and Currents Weather Stations Pressure Air Temp Water Temp Dewpoint Dewpoint Depression Visibility Wind Speed Wind Dir Waves Ship Positions

Queen Of Cowichan

Last reported at 2015-Mar-31 20:34 UTC. Time now 2015-Mar-31 20:47 UTC.
Position N 49°16' W 123°40'.

Length 139 m; draft 5.5 m.

Type: Passenger vessel. MMSI: 316001251.

Date/timePositionNaut miles runAvg speedWind from/ knotsBaromVisibWave heightAir tempDewpointWater temp
2015-Mar-31 20:34N 49°16' W 123°40'1711.9
2015-Mar-31 19:10N 49°23' W 123°16'1016.2
2015-Mar-31 18:34N 49°18' W 123°29'1913.6
2015-Mar-31 17:08N 49°12' W 123°57'1016.6
2015-Mar-31 16:33N 49°16' W 123°44'1919.3
2015-Mar-31 15:33N 49°23' W 123°17'9 9.1
2015-Mar-31 14:33N 49°18' W 123°28'2019.7
2015-Mar-31 13:33N 49°12' W 123°57'1 0.1
2015-Mar-31 07:26N 49°12' W 123°57'6 6.5
2015-Mar-31 06:33N 49°14' W 123°50'2020.0
2015-Mar-31 05:34N 49°20' W 123°20'1 1.4
2015-Mar-31 04:34N 49°19' W 123°22'2019.8
2015-Mar-31 03:33N 49°14' W 123°51'4 4.3
2015-Mar-31 02:30N 49°12' W 123°57'1516.3
2015-Mar-31 01:33N 49°17' W 123°35'1412.5
2015-Mar-31 00:28N 49°23' W 123°16'5 5.8
2015-Mar-30 23:33N 49°19' W 123°23'1716.8
2015-Mar-30 22:33N 49°14' W 123°48'7 6.8
2015-Mar-30 21:33N 49°12' W 123°57'1918.8
2015-Mar-30 20:34N 49°18' W 123°31'10 9.6
2015-Mar-30 19:29N 49°23' W 123°16'1516.0
2015-Mar-30 18:34N 49°16' W 123°37'1412.0
2015-Mar-30 17:23N 49°12' W 123°57'1416.8
2015-Mar-30 16:34N 49°17' W 123°38'1510.8
2015-Mar-30 15:08N 49°23' W 123°16'916.1
2015-Mar-30 14:33N 49°18' W 123°28'2019.4
2015-Mar-30 13:33N 49°12' W 123°57'1 0.5
2015-Mar-30 12:27N 49°12' W 123°57'0 0.0
2015-Mar-30 11:33N 49°12' W 123°57'0 0.0
2015-Mar-30 10:30N 49°12' W 123°57'0 0.0
2015-Mar-30 09:15N 49°12' W 123°57'0 0.0
2015-Mar-30 08:33N 49°12' W 123°57'0 0.0
2015-Mar-30 07:27N 49°12' W 123°57'0 0.1
2015-Mar-30 06:24N 49°12' W 123°57'1618.8
2015-Mar-30 05:34N 49°17' W 123°34'1311.6
2015-Mar-30 04:27N 49°23' W 123°16'1416.0
2015-Mar-30 03:33N 49°16' W 123°36'1512.7
2015-Mar-30 02:24N 49°12' W 123°57'7 8.8
2015-Mar-30 01:34N 49°15' W 123°47'2019.8
2015-Mar-30 00:33N 49°22' W 123°19'1 1.3
2015-Mar-29 23:34N 49°21' W 123°20'2019.5
2015-Mar-29 22:33N 49°14' W 123°48'6 6.4
2015-Mar-29 21:32N 49°12' W 123°57'1818.6
2015-Mar-29 20:33N 49°18' W 123°31'11 8.4
2015-Mar-29 19:18N 49°23' W 123°16'1115.4
2015-Mar-29 18:33N 49°17' W 123°32'1816.8
2015-Mar-29 17:30N 49°12' W 123°57'1111.2
2015-Mar-29 16:34N 49°16' W 123°43'1818.2
2015-Mar-29 15:33N 49°23' W 123°16'9 9.1
2015-Mar-29 14:33N 49°18' W 123°28'2019.7
2015-Mar-29 13:33N 49°12' W 123°57'1 0.7
2015-Mar-29 12:28N 49°12' W 123°57'0 0.0
2015-Mar-29 09:22N 49°12' W 123°57'6 1.6
2015-Mar-29 05:33N 49°15' W 123°49'2019.8
2015-Mar-29 04:34N 49°21' W 123°20'2 1.9
2015-Mar-29 03:33N 49°19' W 123°22'2020.2
2015-Mar-29 02:33N 49°14' W 123°52'3 3.4
2015-Mar-29 01:34N 49°12' W 123°57'1919.3
2015-Mar-29 00:34N 49°19' W 123°29'9 9.1
2015-Mar-28 23:33N 49°23' W 123°16'1918.5
2015-Mar-28 22:33N 49°15' W 123°42'10 9.1
2015-Mar-28 21:24N 49°12' W 123°57'1517.8
2015-Mar-28 20:34N 49°17' W 123°36'1411.6
2015-Mar-28 19:21N 49°23' W 123°16'1316.4
2015-Mar-28 18:33N 49°17' W 123°34'1612.8
2015-Mar-28 17:18N 49°12' W 123°57'1215.8
2015-Mar-28 16:33N 49°17' W 123°41'1712.7
2015-Mar-28 15:12N 49°23' W 123°16'1015.6
2015-Mar-28 14:33N 49°17' W 123°29'1919.0
2015-Mar-28 13:33N 49°12' W 123°57'0 0.0
2015-Mar-28 12:13N 49°12' W 123°57'0 0.0
2015-Mar-28 10:25N 49°12' W 123°57'0 0.0
2015-Mar-28 09:22N 49°12' W 123°57'0 0.0
2015-Mar-28 08:22N 49°12' W 123°57'0 0.0
2015-Mar-28 06:33N 49°12' W 123°57'1818.3
2015-Mar-28 05:33N 49°18' W 123°31'11 9.6
2015-Mar-28 04:26N 49°23' W 123°16'1315.0
2015-Mar-28 03:34N 49°17' W 123°34'1613.6
2015-Mar-28 02:23N 49°12' W 123°57'8 9.8
2015-Mar-28 01:33N 49°15' W 123°46'1919.2
2015-Mar-28 00:33N 49°22' W 123°18'0 0.5
2015-Mar-27 23:33N 49°22' W 123°19'1919.4
2015-Mar-27 22:34N 49°15' W 123°47'8 7.5
2015-Mar-27 21:33N 49°12' W 123°57'1717.5
2015-Mar-27 20:34N 49°18' W 123°33'12 9.8
2015-Mar-27 19:22N 49°23' W 123°16'1315.7
2015-Mar-27 18:34N 49°17' W 123°34'1611.9
2015-Mar-27 17:11N 49°12' W 123°57'1117.1
2015-Mar-27 16:33N 49°17' W 123°43'1818.2
2015-Mar-27 15:33N 49°23' W 123°16'9 9.1
2015-Mar-27 14:33N 49°18' W 123°28'2019.7
2015-Mar-27 13:34N 49°12' W 123°57'1 0.4
2015-Mar-27 12:13N 49°12' W 123°57'0 0.0
2015-Mar-27 11:31N 49°12' W 123°57'0 0.0
2015-Mar-27 10:22N 49°12' W 123°57'0 0.0
2015-Mar-27 09:13N 49°12' W 123°57'0 0.0
2015-Mar-27 08:31N 49°12' W 123°57'0 0.0
2015-Mar-27 07:25N 49°12' W 123°57'0 0.0
2015-Mar-27 06:19N 49°12' W 123°57'4 4.7
2015-Mar-27 05:33N 49°14' W 123°53'2020.4
2015-Mar-27 04:33N 49°20' W 123°23'1 1.4
2015-Mar-27 03:33N 49°20' W 123°21'2020.0
2015-Mar-27 02:34N 49°14' W 123°50'2 2.4
2015-Mar-27 01:33N 49°13' W 123°54'2020.2
2015-Mar-27 00:33N 49°19' W 123°24'6 6.3
2015-Mar-26 23:33N 49°23' W 123°17'1918.8
2015-Mar-26 22:33N 49°15' W 123°43'10 8.7
2015-Mar-26 21:24N 49°12' W 123°57'1619.0
2015-Mar-26 20:34N 49°18' W 123°35'1311.0
2015-Mar-26 19:23N 49°23' W 123°16'1315.2
2015-Mar-26 18:34N 49°16' W 123°33'1615.7
2015-Mar-26 17:31N 49°12' W 123°57'1111.5
2015-Mar-26 16:33N 49°17' W 123°42'1817.9
2015-Mar-26 15:33N 49°23' W 123°16'9 8.7
2015-Mar-26 14:33N 49°18' W 123°28'2019.9
2015-Mar-26 13:33N 49°12' W 123°57'1 0.2
2015-Mar-26 10:31N 49°12' W 123°57'0 0.0
2015-Mar-26 08:22N 49°12' W 123°57'0 0.0
2015-Mar-26 06:31N 49°12' W 123°57'1414.2
2015-Mar-26 05:33N 49°17' W 123°38'1513.6
2015-Mar-26 04:26N 49°23' W 123°16'1314.6
2015-Mar-26 03:34N 49°17' W 123°34'1612.5
2015-Mar-26 02:16N 49°12' W 123°57'1014.5
2015-Mar-26 01:33N 49°16' W 123°43'1918.7
2015-Mar-26 00:34N 49°23' W 123°16'7 7.1
2015-Mar-25 23:33N 49°19' W 123°25'2019.7
2015-Mar-25 22:33N 49°13' W 123°54'2 1.7
2015-Mar-25 21:33N 49°14' W 123°52'2019.6
2015-Mar-25 20:34N 49°19' W 123°23'6 5.2
2015-Mar-25 19:28N 49°23' W 123°16'1617.2
2015-Mar-25 18:33N 49°16' W 123°38'1310.6
2015-Mar-25 17:17N 49°12' W 123°57'1317.4
2015-Mar-25 16:33N 49°17' W 123°40'1612.5
2015-Mar-25 15:15N 49°23' W 123°16'1115.3
2015-Mar-25 14:34N 49°17' W 123°30'1818.3
2015-Mar-25 13:33N 49°12' W 123°57'0 0.1
2015-Mar-25 09:13N 49°12' W 123°57'0 0.0
2015-Mar-25 07:19N 49°12' W 123°57'0 0.0
2015-Mar-25 06:25N 49°12' W 123°57'1 0.6
2015-Mar-25 05:33N 49°12' W 123°57'2019.8
2015-Mar-25 04:34N 49°18' W 123°28'9 8.6
2015-Mar-25 03:33N 49°23' W 123°17'1919.3
2015-Mar-25 02:34N 49°15' W 123°44'9 9.1
2015-Mar-25 01:33N 49°12' W 123°57'2019.6
2015-Mar-25 00:33N 49°18' W 123°29'9 9.4
2015-Mar-24 23:33N 49°23' W 123°16'1918.8
2015-Mar-24 22:33N 49°15' W 123°42'10 9.5
2015-Mar-24 21:27N 49°12' W 123°57'1517.2
2015-Mar-24 20:34N 49°17' W 123°35'1411.3
2015-Mar-24 19:21N 49°23' W 123°16'1215.0
2015-Mar-24 18:33N 49°17' W 123°32'1712.2
2015-Mar-24 17:09N 49°12' W 123°57'1118.2
2015-Mar-24 16:33N 49°16' W 123°42'1813.5
2015-Mar-24 15:14N 49°23' W 123°16'913.9
2015-Mar-24 14:34N 49°18' W 123°28'2019.5
2015-Mar-24 13:33N 49°12' W 123°57'0 0.1
2015-Mar-24 07:16N 49°12' W 123°57'0 0.0
2015-Mar-24 06:22N 49°12' W 123°57'3 3.9
2015-Mar-24 05:33N 49°14' W 123°53'2020.0
2015-Mar-24 04:34N 49°19' W 123°24'3 2.9
2015-Mar-24 03:33N 49°21' W 123°20'1919.4
2015-Mar-24 02:33N 49°15' W 123°49'3 3.2
2015-Mar-24 01:33N 49°14' W 123°53'2020.1
2015-Mar-24 00:33N 49°19' W 123°24'5 5.1
2015-Mar-23 23:33N 49°23' W 123°18'1818.1
2015-Mar-23 22:34N 49°15' W 123°43'10 8.1
2015-Mar-23 21:21N 49°12' W 123°57'1418.4
2015-Mar-23 20:34N 49°17' W 123°37'1411.0
2015-Mar-23 19:15N 49°23' W 123°16'1116.4
2015-Mar-23 18:34N 49°17' W 123°31'1817.5
2015-Mar-23 17:32N 49°12' W 123°57'1110.7
2015-Mar-23 16:33N 49°16' W 123°43'1813.5
2015-Mar-23 15:12N 49°23' W 123°16'914.3
2015-Mar-23 14:33N 49°18' W 123°28'2019.7
2015-Mar-23 13:33N 49°12' W 123°57'8 1.0
2015-Mar-23 05:34N 49°15' W 123°45'2019.8
2015-Mar-23 04:33N 49°23' W 123°17'8 7.8
2015-Mar-23 03:33N 49°18' W 123°27'2019.6
2015-Mar-23 02:34N 49°13' W 123°55'3 3.4
2015-Mar-23 01:33N 49°14' W 123°51'2020.4
2015-Mar-23 00:34N 49°20' W 123°21'3 2.6
2015-Mar-22 23:33N 49°22' W 123°19'1918.7
2015-Mar-22 22:33N 49°15' W 123°45'9 7.1
2015-Mar-22 21:21N 49°12' W 123°57'1518.6
2015-Mar-22 20:34N 49°17' W 123°37'1414.2
2015-Mar-22 19:33N 49°23' W 123°16'1110.5
2015-Mar-22 18:33N 49°17' W 123°30'1918.6
2015-Mar-22 17:33N 49°12' W 123°57'1010.5
2015-Mar-22 16:33N 49°16' W 123°43'1918.5
2015-Mar-22 15:34N 49°23' W 123°16'9 9.4
2015-Mar-22 14:33N 49°18' W 123°29'1919.2
2015-Mar-22 13:33N 49°12' W 123°57'1 0.6
2015-Mar-22 12:31N 49°12' W 123°57'0 0.0
2015-Mar-22 11:16N 49°12' W 123°57'0 0.0
2015-Mar-22 10:28N 49°12' W 123°57'0 0.0
2015-Mar-22 08:10N 49°12' W 123°57'3 1.0
2015-Mar-22 05:33N 49°13' W 123°54'2020.1
2015-Mar-22 04:34N 49°19' W 123°24'4 4.3
2015-Mar-22 03:33N 49°22' W 123°19'1919.3
2015-Mar-22 02:33N 49°15' W 123°47'6 5.9
2015-Mar-22 01:33N 49°13' W 123°55'2020.0
2015-Mar-22 00:34N 49°19' W 123°26'7 7.1
2015-Mar-21 23:33N 49°23' W 123°17'1818.4
2015-Mar-21 22:33N 49°15' W 123°43'10 9.2
2015-Mar-21 21:28N 49°12' W 123°57'1415.7
2015-Mar-21 20:34N 49°17' W 123°37'  

Dump ship's entire track history